Time,TemperatureF,DewpointF,PressureIn,WindDirection,WindDirectionDegrees,WindSpeedMPH,WindSpeedGustMPH,Humidity,HourlyPrecipIn,Conditions,Clouds,dailyrainin,SoftwareType,DateUTC
2013-01-09 00:00:00,29.7,25.1,30.01,SW,214,6.0,11.0,83,0.00,CLR,,0.00,WeatherDisplay:10.37,2013-01-09 05:00:00,
2013-01-09 00:01:00,29.7,25.1,30.01,SW,225,8.1,8.1,83,0.00,CLR,,0.00,WeatherDisplay:10.37,2013-01-09 05:01:00,
2013-01-09 00:03:00,29.7,25.1,30.01,SW,225,8.1,8.1,83,0.00,CLR,,0.00,WeatherDisplay:10.37,2013-01-09 05:03:00,
2013-01-09 00:08:00,29.8,25.3,30.00,WSW,248,8.1,8.1,83,0.00,CLR,,0.00,WeatherDisplay:10.37,2013-01-09 05:08:00,
2013-01-09 00:13:00,30.0,25.5,30.00,South,180,9.2,9.2,83,0.00,CLR,,0.00,WeatherDisplay:10.37,2013-01-09 05:13:00,
2013-01-09 00:18:00,30.0,25.5,30.00,South,180,8.1,8.1,83,0.00,CLR,,0.00,WeatherDisplay:10.37,2013-01-09 05:18:00,
2013-01-09 00:23:00,30.2,25.7,30.00,SW,225,8.1,8.1,83,0.00,CLR,,0.00,WeatherDisplay:10.37,2013-01-09 05:23:00,
2013-01-09 00:28:00,30.2,25.7,30.00,South,180,10.4,10.4,83,0.00,CLR,,0.00,WeatherDisplay:10.37,2013-01-09 05:28:00,
2013-01-09 00:33:00,30.2,25.7,30.01,SW,225,10.4,10.4,83,0.00,CLR,,0.00,WeatherDisplay:10.37,2013-01-09 05:33:00,
2013-01-09 00:38:00,30.4,25.8,30.00,SW,225,12.7,12.7,83,0.00,CLR,,0.00,WeatherDisplay:10.37,2013-01-09 05:38:00,
2013-01-09 00:43:00,30.4,25.8,30.00,South,180,8.1,8.1,83,0.00,CLR,,0.00,WeatherDisplay:10.37,2013-01-09 05:43:00,
2013-01-09 00:48:00,30.4,25.8,30.00,South,180,8.1,8.1,83,0.00,CLR,,0.00,WeatherDisplay:10.37,2013-01-09 05:48:00,
2013-01-09 00:53:00,30.4,25.8,29.99,South,180,8.1,8.1,83,0.00,CLR,,0.00,WeatherDisplay:10.37,2013-01-09 05:53:00,
2013-01-09 00:58:00,30.4,25.8,29.99,South,180,6.9,6.9,83,0.00,CLR,,0.00,WeatherDisplay:10.37,2013-01-09 05:58:00,
2013-01-09 01:03:00,30.2,25.7,29.98,SSE,158,8.1,8.1,83,0.00,CLR,,0.00,WeatherDisplay:10.37,2013-01-09 06:03:00,
2013-01-09 01:08:00,30.0,25.5,29.98,South,180,10.4,10.4,83,0.00,CLR,,0.00,WeatherDisplay:10.37,2013-01-09 06:08:00,
2013-01-09 01:13:00,30.0,25.5,29.98,SW,225,10.4,10.4,83,0.00,CLR,,0.00,WeatherDisplay:10.37,2013-01-09 06:13:00,
2013-01-09 01:18:00,29.8,25.3,29.97,South,180,8.1,8.1,83,0.00,CLR,,0.00,WeatherDisplay:10.37,2013-01-09 06:18:00,
2013-01-09 01:23:00,29.8,25.3,29.97,SW,225,9.2,9.2,83,0.00,CLR,,0.00,WeatherDisplay:10.37,2013-01-09 06:23:00,
2013-01-09 01:28:00,29.8,25.3,29.96,South,180,8.1,8.1,83,0.00,CLR,,0.00,WeatherDisplay:10.37,2013-01-09 06:28:00,
2013-01-09 01:33:00,29.8,25.3,29.97,South,180,8.1,8.1,83,0.00,CLR,,0.00,WeatherDisplay:10.37,2013-01-09 06:33:00,
2013-01-09 01:38:00,29.8,25.3,29.97,South,180,10.4,10.4,83,0.00,CLR,,0.00,WeatherDisplay:10.37,2013-01-09 06:38:00,
2013-01-09 01:43:00,29.8,25.3,29.97,SW,225,10.4,10.4,83,0.00,CLR,,0.00,WeatherDisplay:10.37,2013-01-09 06:43:00,
2013-01-09 01:48:00,29.8,25.3,29.97,SSW,202,8.1,8.1,83,0.00,CLR,,0.00,WeatherDisplay:10.37,2013-01-09 06:48:00,
2013-01-09 01:53:00,29.8,25.3,29.96,South,180,8.1,8.1,83,0.00,CLR,,0.00,WeatherDisplay:10.37,2013-01-09 06:53:00,
2013-01-09 01:58:00,29.8,25.3,29.95,South,180,9.2,9.2,83,0.00,CLR,,0.00,WeatherDisplay:10.37,2013-01-09 06:58:00,
2013-01-09 02:03:00,29.8,25.3,29.95,South,180,9.2,9.2,83,0.00,CLR,,0.00,WeatherDisplay:10.37,2013-01-09 07:03:00,
2013-01-09 02:08:00,29.8,25.3,29.95,South,180,9.2,9.2,83,0.00,CLR,,0.00,WeatherDisplay:10.37,2013-01-09 07:08:00,
2013-01-09 02:13:00,30.2,25.7,29.96,South,180,10.4,10.4,83,0.00,CLR,,0.00,WeatherDisplay:10.37,2013-01-09 07:13:00,
2013-01-09 02:18:00,30.2,25.7,29.96,SSW,202,10.4,10.4,83,0.00,CLR,,0.00,WeatherDisplay:10.37,2013-01-09 07:18:00,
2013-01-09 02:23:00,30.2,25.7,29.96,South,180,10.4,10.4,83,0.00,CLR,,0.00,WeatherDisplay:10.37,2013-01-09 07:23:00,
2013-01-09 02:28:00,30.4,25.8,29.96,South,180,8.1,8.1,83,0.00,CLR,,0.00,WeatherDisplay:10.37,2013-01-09 07:28:00,
2013-01-09 02:33:00,30.4,25.8,29.95,South,180,10.4,10.4,83,0.00,CLR,,0.00,WeatherDisplay:10.37,2013-01-09 07:33:00,
2013-01-09 02:38:00,30.4,25.8,29.95,South,180,9.2,9.2,83,0.00,CLR,,0.00,WeatherDisplay:10.37,2013-01-09 07:38:00,
2013-01-09 02:43:00,30.7,26.2,29.95,South,180,9.2,9.2,83,0.00,CLR,,0.00,WeatherDisplay:10.37,2013-01-09 07:43:00,
2013-01-09 02:48:00,30.9,26.4,29.95,South,180,10.4,10.4,83,0.00,CLR,,0.00,WeatherDisplay:10.37,2013-01-09 07:48:00,
2013-01-09 02:53:00,30.9,26.4,29.95,SW,225,10.4,10.4,83,0.00,CLR,,0.00,WeatherDisplay:10.37,2013-01-09 07:53:00,
2013-01-09 02:58:00,31.1,26.5,29.95,South,180,11.5,11.5,83,0.00,CLR,,0.00,WeatherDisplay:10.37,2013-01-09 07:58:00,
2013-01-09 03:03:00,31.1,26.2,29.94,SSW,202,10.4,10.4,82,0.00,CLR,,0.00,WeatherDisplay:10.37,2013-01-09 08:03:00,
2013-01-09 03:08:00,31.3,26.4,29.95,SW,225,15.0,15.0,82,0.00,CLR,,0.00,WeatherDisplay:10.37,2013-01-09 08:08:00,
2013-01-09 03:13:00,31.6,26.8,29.95,SSW,202,8.1,8.1,82,0.00,CLR,,0.00,WeatherDisplay:10.37,2013-01-09 08:13:00,
2013-01-09 03:18:00,31.8,27.0,29.95,WSW,248,8.1,8.1,82,0.00,CLR,,0.00,WeatherDisplay:10.37,2013-01-09 08:18:00,
2013-01-09 03:23:00,32.0,27.1,29.95,South,180,12.7,12.7,82,0.00,CLR,,0.00,WeatherDisplay:10.37,2013-01-09 08:23:00,
2013-01-09 03:28:00,32.5,28.0,29.95,South,180,12.7,12.7,83,0.00,CLR,,0.00,WeatherDisplay:10.37,2013-01-09 08:28:00,
2013-01-09 03:33:00,32.7,27.8,29.95,South,180,12.7,12.7,82,0.00,CLR,,0.00,WeatherDisplay:10.37,2013-01-09 08:33:00,
2013-01-09 03:38:00,33.3,28.4,29.95,South,180,15.0,15.0,82,0.00,CLR,,0.00,WeatherDisplay:10.37,2013-01-09 08:38:00,
2013-01-09 03:43:00,33.6,28.7,29.95,SW,225,16.1,16.1,82,0.00,CLR,,0.00,WeatherDisplay:10.37,2013-01-09 08:43:00,
2013-01-09 03:48:00,33.6,28.4,29.94,SSW,202,11.5,11.5,81,0.00,CLR,,0.00,WeatherDisplay:10.37,2013-01-09 08:48:00,
2013-01-09 03:53:00,33.8,28.6,29.94,South,180,13.8,13.8,81,0.00,CLR,,0.00,WeatherDisplay:10.37,2013-01-09 08:53:00,
2013-01-09 03:58:00,33.8,28.6,29.93,SW,225,15.0,15.0,81,0.00,CLR,,0.00,WeatherDisplay:10.37,2013-01-09 08:58:00,
2013-01-09 04:03:00,34.0,28.8,29.92,South,180,8.1,8.1,81,0.00,CLR,,0.00,WeatherDisplay:10.37,2013-01-09 09:03:00,
2013-01-09 04:08:00,34.3,29.1,29.91,SW,225,10.4,10.4,81,0.00,CLR,,0.00,WeatherDisplay:10.37,2013-01-09 09:08:00,
2013-01-09 04:13:00,34.5,29.3,29.91,South,180,16.1,16.1,81,0.00,CLR,,0.00,WeatherDisplay:10.37,2013-01-09 09:13:00,
2013-01-09 04:18:00,34.9,29.6,29.91,SSW,202,12.7,12.7,81,0.00,CLR,,0.00,WeatherDisplay:10.37,2013-01-09 09:18:00,
2013-01-09 04:23:00,35.2,30.0,29.90,South,180,12.7,12.7,81,0.00,CLR,,0.00,WeatherDisplay:10.37,2013-01-09 09:23:00,
2013-01-09 04:28:00,35.4,30.2,29.91,WSW,248,16.1,16.1,81,0.00,CLR,,0.00,WeatherDisplay:10.37,2013-01-09 09:28:00,
2013-01-09 04:33:00,35.6,30.3,29.92,SSW,202,13.8,13.8,81,0.00,CLR,,0.00,WeatherDisplay:10.37,2013-01-09 09:33:00,
2013-01-09 04:38:00,35.8,30.2,29.92,SW,225,13.8,13.8,80,0.00,CLR,,0.00,WeatherDisplay:10.37,2013-01-09 09:38:00,
2013-01-09 04:43:00,36.0,30.4,29.92,SSW,202,16.1,16.1,80,0.00,CLR,,0.00,WeatherDisplay:10.37,2013-01-09 09:43:00,
2013-01-09 04:48:00,36.1,30.6,29.91,North,0,17.3,17.3,80,0.00,CLR,,0.00,WeatherDisplay:10.37,2013-01-09 09:48:00,
2013-01-09 04:54:00,36.3,30.7,29.91,SW,225,16.1,16.1,80,0.00,CLR,,0.00,WeatherDisplay:10.37,2013-01-09 09:54:00,
2013-01-09 04:59:00,36.5,30.9,29.90,SW,225,19.6,19.6,80,0.00,CLR,,0.00,WeatherDisplay:10.37,2013-01-09 09:59:00,
2013-01-09 05:04:00,36.5,30.9,29.91,SW,225,15.0,15.0,80,0.00,CLR,,0.00,WeatherDisplay:10.37,2013-01-09 10:04:00,
2013-01-09 05:09:00,36.9,31.0,29.90,SW,225,18.4,18.4,79,0.00,CLR,,0.00,WeatherDisplay:10.37,2013-01-09 10:09:00,
2013-01-09 05:14:00,37.0,31.1,29.90,SW,225,16.1,16.1,79,0.00,CLR,,0.00,WeatherDisplay:10.37,2013-01-09 10:14:00,
2013-01-09 05:19:00,37.2,31.3,29.91,SW,225,17.3,17.3,79,0.00,CLR,,0.00,WeatherDisplay:10.37,2013-01-09 10:19:00,
2013-01-09 05:24:00,37.2,31.3,29.92,SW,225,15.0,15.0,79,0.00,CLR,,0.00,WeatherDisplay:10.37,2013-01-09 10:24:00,
2013-01-09 05:29:00,37.2,31.3,29.93,WSW,248,19.6,19.6,79,0.00,CLR,,0.00,WeatherDisplay:10.37,2013-01-09 10:29:00,
2013-01-09 05:34:00,37.4,31.5,29.91,SW,225,18.4,18.4,79,0.00,CLR,,0.00,WeatherDisplay:10.37,2013-01-09 10:34:00,
2013-01-09 05:39:00,37.4,31.5,29.91,SSW,202,16.1,16.1,79,0.00,CLR,,0.00,WeatherDisplay:10.37,2013-01-09 10:39:00,
2013-01-09 05:44:00,37.4,31.5,29.90,SW,225,16.1,16.1,79,0.00,CLR,,0.00,WeatherDisplay:10.37,2013-01-09 10:44:00,
2013-01-09 05:49:00,37.6,31.7,29.90,SW,225,12.7,12.7,79,0.00,CLR,,0.00,WeatherDisplay:10.37,2013-01-09 10:49:00,
2013-01-09 05:54:00,37.6,31.7,29.90,SW,225,12.7,12.7,79,0.00,CLR,,0.00,WeatherDisplay:10.37,2013-01-09 10:54:00,
2013-01-09 05:59:00,37.6,32.0,29.89,SW,225,13.8,13.8,80,0.00,CLR,,0.00,WeatherDisplay:10.37,2013-01-09 10:59:00,
2013-01-09 06:04:00,37.8,32.1,29.88,SW,225,12.7,12.7,80,0.00,CLR,,0.00,WeatherDisplay:10.37,2013-01-09 11:04:00,
2013-01-09 06:09:00,37.6,32.3,29.88,SW,225,12.7,12.7,81,0.01,RA,,0.01,WeatherDisplay:10.37,2013-01-09 11:09:00,
2013-01-09 06:14:00,37.6,32.6,29.88,SW,225,12.7,12.7,82,0.01,RA,,0.01,WeatherDisplay:10.37,2013-01-09 11:14:00,
2013-01-09 06:19:00,37.6,32.6,29.88,SW,225,12.7,12.7,82,0.01,,,0.01,WeatherDisplay:10.37,2013-01-09 11:19:00,
2013-01-09 06:24:00,37.8,33.1,29.88,SW,225,12.7,12.7,83,0.01,CLR,,0.01,WeatherDisplay:10.37,2013-01-09 11:24:00,
2013-01-09 06:29:00,37.8,33.1,29.88,SW,225,12.7,12.7,83,0.01,CLR,,0.01,WeatherDisplay:10.37,2013-01-09 11:29:00,
2013-01-09 06:34:00,37.8,33.1,29.88,SW,225,11.5,11.5,83,0.01,CLR,,0.01,WeatherDisplay:10.37,2013-01-09 11:34:00,
2013-01-09 06:39:00,37.8,33.1,29.88,SSW,202,12.7,12.7,83,0.01,CLR,,0.01,WeatherDisplay:10.37,2013-01-09 11:39:00,
2013-01-09 06:44:00,37.6,32.9,29.89,WSW,248,12.7,12.7,83,0.01,CLR,,0.01,WeatherDisplay:10.37,2013-01-09 11:44:00,
2013-01-09 06:49:00,37.6,33.2,29.88,SW,225,11.5,11.5,84,0.01,CLR,,0.01,WeatherDisplay:10.37,2013-01-09 11:49:00,
2013-01-09 06:54:00,37.4,33.0,29.89,SW,225,12.7,12.7,84,0.01,CLR,,0.01,WeatherDisplay:10.37,2013-01-09 11:54:00,
2013-01-09 06:59:00,37.4,33.0,29.88,SW,225,15.0,15.0,84,0.01,CLR,,0.01,WeatherDisplay:10.37,2013-01-09 11:59:00,
2013-01-09 07:04:00,37.6,33.2,29.88,SW,225,9.2,9.2,84,0.01,CLR,,0.01,WeatherDisplay:10.37,2013-01-09 12:04:00,
2013-01-09 07:09:00,37.6,33.5,29.89,SW,225,12.7,12.7,85,0.00,CLR,,0.01,WeatherDisplay:10.37,2013-01-09 12:09:00,
2013-01-09 07:14:00,37.8,33.7,29.88,SW,225,16.1,16.1,85,0.00,CLR,,0.01,WeatherDisplay:10.37,2013-01-09 12:14:00,
2013-01-09 07:19:00,37.9,33.8,29.88,SW,225,13.8,13.8,85,0.00,CLR,,0.01,WeatherDisplay:10.37,2013-01-09 12:19:00,
2013-01-09 07:24:00,37.9,33.8,29.88,SW,225,15.0,15.0,85,0.00,CLR,,0.01,WeatherDisplay:10.37,2013-01-09 12:24:00,
2013-01-09 07:29:00,37.9,33.8,29.89,NW,315,20.7,20.7,85,0.00,CLR,,0.01,WeatherDisplay:10.37,2013-01-09 12:29:00,
2013-01-09 07:34:00,38.1,34.0,29.88,SW,225,19.6,19.6,85,0.00,CLR,,0.01,WeatherDisplay:10.37,2013-01-09 12:34:00,
2013-01-09 07:39:00,38.3,34.2,29.89,SW,225,18.4,18.4,85,0.00,CLR,,0.01,WeatherDisplay:10.37,2013-01-09 12:39:00,
2013-01-09 07:44:00,38.5,34.1,29.89,SW,225,15.0,15.2,84,0.00,CLR,,0.01,WeatherDisplay:10.37,2013-01-09 12:44:00,
2013-01-09 07:49:00,38.5,34.1,29.89,SW,225,18.4,18.4,84,0.00,CLR,,0.01,WeatherDisplay:10.37,2013-01-09 12:49:00,
2013-01-09 07:54:00,38.7,34.2,29.89,SW,225,20.7,20.7,84,0.00,CLR,,0.01,WeatherDisplay:10.37,2013-01-09 12:54:00,
2013-01-09 07:59:00,38.8,34.4,29.90,SW,225,21.9,21.9,84,0.00,CLR,,0.01,WeatherDisplay:10.37,2013-01-09 12:59:00,
2013-01-09 08:04:00,38.8,34.4,29.90,SW,225,19.7,19.7,84,0.00,CLR,,0.01,WeatherDisplay:10.37,2013-01-09 13:04:00,
2013-01-09 08:09:00,38.8,34.1,29.91,NW,315,20.7,20.7,83,0.00,CLR,,0.01,WeatherDisplay:10.37,2013-01-09 13:09:00,
2013-01-09 08:14:00,38.8,34.1,29.91,WSW,248,19.7,19.7,83,0.00,CLR,,0.01,WeatherDisplay:10.37,2013-01-09 13:14:00,
2013-01-09 08:19:00,38.8,34.1,29.91,SW,225,20.7,20.7,83,0.00,CLR,,0.01,WeatherDisplay:10.37,2013-01-09 13:19:00,
2013-01-09 08:24:00,38.8,34.1,29.91,SW,225,22.2,22.2,83,0.00,CLR,,0.01,WeatherDisplay:10.37,2013-01-09 13:24:00,
2013-01-09 08:29:00,38.8,34.1,29.92,SSW,202,23.0,23.0,83,0.00,CLR,,0.01,WeatherDisplay:10.37,2013-01-09 13:29:00,
2013-01-09 08:34:00,38.8,34.1,29.92,SW,225,19.6,19.6,83,0.00,CLR,,0.01,WeatherDisplay:10.37,2013-01-09 13:34:00,
2013-01-09 08:39:00,39.0,34.3,29.92,WSW,248,17.3,17.3,83,0.00,CLR,,0.01,WeatherDisplay:10.37,2013-01-09 13:39:00,
2013-01-09 08:44:00,39.2,34.2,29.92,SW,225,23.0,23.0,82,0.00,CLR,,0.01,WeatherDisplay:10.37,2013-01-09 13:44:00,
2013-01-09 08:49:00,39.4,34.3,29.92,NE,45,23.0,23.0,82,0.00,CLR,,0.01,WeatherDisplay:10.37,2013-01-09 13:49:00,
2013-01-09 08:54:00,39.9,34.6,29.93,WNW,292,21.9,21.9,81,0.00,CLR,,0.01,WeatherDisplay:10.37,2013-01-09 13:54:00,
2013-01-09 08:59:00,40.1,34.7,29.93,WSW,248,20.7,20.7,81,0.00,CLR,,0.01,WeatherDisplay:10.37,2013-01-09 13:59:00,
2013-01-09 09:04:00,40.1,34.7,29.94,WSW,248,20.7,20.7,81,0.00,CLR,,0.01,WeatherDisplay:10.37,2013-01-09 14:04:00,
2013-01-09 09:09:00,40.3,34.3,29.94,SW,225,23.0,23.0,79,0.00,CLR,,0.01,WeatherDisplay:10.37,2013-01-09 14:09:00,
2013-01-09 09:14:00,40.6,34.6,29.95,WNW,292,19.6,19.6,79,0.00,CLR,,0.01,WeatherDisplay:10.37,2013-01-09 14:14:00,
2013-01-09 09:19:00,40.5,34.5,29.95,WNW,292,23.0,23.0,79,0.00,CLR,,0.01,WeatherDisplay:10.37,2013-01-09 14:19:00,
2013-01-09 09:24:00,40.5,34.5,29.95,WSW,248,24.2,24.2,79,0.00,CLR,,0.01,WeatherDisplay:10.37,2013-01-09 14:24:00,
2013-01-09 09:29:00,40.5,34.5,29.95,West,270,23.0,23.0,79,0.00,CLR,,0.01,WeatherDisplay:10.37,2013-01-09 14:29:00,
2013-01-09 09:34:00,40.5,34.5,29.95,SW,225,25.1,25.1,79,0.00,CLR,,0.01,WeatherDisplay:10.37,2013-01-09 14:34:00,
2013-01-09 09:39:00,40.8,34.5,29.95,NW,315,19.6,19.6,78,0.00,CLR,,0.01,WeatherDisplay:10.37,2013-01-09 14:39:00,
2013-01-09 09:44:00,40.8,34.5,29.95,SW,225,21.9,21.9,78,0.00,CLR,,0.01,WeatherDisplay:10.37,2013-01-09 14:44:00,
2013-01-09 09:49:00,40.8,34.2,29.95,NW,315,31.1,31.1,77,0.00,CLR,,0.01,WeatherDisplay:10.37,2013-01-09 14:49:00,
2013-01-09 09:54:00,41.0,34.3,29.96,West,270,28.2,28.2,77,0.00,CLR,,0.01,WeatherDisplay:10.37,2013-01-09 14:54:00,
2013-01-09 09:59:00,41.0,34.3,29.96,NE,45,18.4,18.4,77,0.00,CLR,,0.01,WeatherDisplay:10.37,2013-01-09 14:59:00,
2013-01-09 10:04:00,41.0,34.3,29.97,NE,45,21.9,21.9,77,0.00,CLR,,0.01,WeatherDisplay:10.37,2013-01-09 15:04:00,
2013-01-09 10:09:00,41.0,34.3,29.96,SW,225,26.5,26.5,77,0.00,CLR,,0.01,WeatherDisplay:10.37,2013-01-09 15:09:00,
2013-01-09 10:14:00,40.8,34.2,29.97,West,270,19.6,19.6,77,0.00,CLR,,0.01,WeatherDisplay:10.37,2013-01-09 15:14:00,
2013-01-09 10:19:00,41.0,34.3,29.97,SW,225,20.7,20.7,77,0.00,CLR,,0.01,WeatherDisplay:10.37,2013-01-09 15:19:00,
2013-01-09 10:24:00,41.2,34.2,29.97,NW,315,18.4,18.4,76,0.00,CLR,,0.01,WeatherDisplay:10.37,2013-01-09 15:24:00,
2013-01-09 10:29:00,41.4,34.4,29.97,WSW,248,23.0,23.0,76,0.00,CLR,,0.01,WeatherDisplay:10.37,2013-01-09 15:29:00,
2013-01-09 10:34:00,41.4,34.4,29.98,SW,225,19.6,19.6,76,0.00,CLR,,0.01,WeatherDisplay:10.37,2013-01-09 15:34:00,
2013-01-09 10:39:00,41.5,34.2,29.98,SW,225,23.0,23.0,75,0.00,CLR,,0.01,WeatherDisplay:10.37,2013-01-09 15:39:00,
2013-01-09 10:44:00,41.7,34.4,29.98,WSW,248,25.3,25.3,75,0.00,CLR,,0.01,WeatherDisplay:10.37,2013-01-09 15:44:00,
2013-01-09 10:49:00,41.9,34.2,29.98,West,270,23.0,23.0,74,0.00,CLR,,0.01,WeatherDisplay:10.37,2013-01-09 15:49:00,
2013-01-09 10:54:00,41.9,34.2,29.99,West,270,17.3,17.3,74,0.00,CLR,,0.01,WeatherDisplay:10.37,2013-01-09 15:54:00,
2013-01-09 10:59:00,42.1,34.4,29.99,NW,315,24.2,24.2,74,0.00,CLR,,0.01,WeatherDisplay:10.37,2013-01-09 15:59:00,
2013-01-09 11:04:00,42.1,34.4,29.99,NW,315,19.6,19.6,74,0.00,CLR,,0.01,WeatherDisplay:10.37,2013-01-09 16:04:00,
2013-01-09 11:09:00,42.4,34.4,29.99,WSW,248,18.4,18.4,73,0.00,CLR,,0.01,WeatherDisplay:10.37,2013-01-09 16:09:00,
2013-01-09 11:14:00,42.8,34.4,29.99,WSW,248,19.6,19.6,72,0.00,CLR,,0.01,WeatherDisplay:10.37,2013-01-09 16:14:00,
2013-01-09 11:19:00,42.8,34.0,29.99,SW,225,20.7,20.7,71,0.00,CLR,,0.01,WeatherDisplay:10.37,2013-01-09 16:19:00,
2013-01-09 11:24:00,43.0,33.9,29.98,SW,225,19.6,19.6,70,0.00,CLR,,0.01,WeatherDisplay:10.37,2013-01-09 16:24:00,
2013-01-09 11:29:00,43.0,33.9,29.99,SW,225,23.0,23.0,70,0.00,CLR,,0.01,WeatherDisplay:10.37,2013-01-09 16:29:00,
2013-01-09 11:34:00,43.2,33.7,29.99,SW,225,24.2,24.2,69,0.00,CLR,,0.01,WeatherDisplay:10.37,2013-01-09 16:34:00,
2013-01-09 11:40:00,43.3,33.8,29.99,North,0,20.7,20.7,69,0.00,CLR,,0.01,WeatherDisplay:10.37,2013-01-09 16:40:00,
2013-01-09 11:45:00,43.3,33.5,29.99,SW,225,24.2,24.2,68,0.00,CLR,,0.01,WeatherDisplay:10.37,2013-01-09 16:45:00,
2013-01-09 11:50:00,43.5,33.7,29.99,SW,225,19.6,19.6,68,0.00,CLR,,0.01,WeatherDisplay:10.37,2013-01-09 16:50:00,
2013-01-09 11:55:00,43.5,33.7,29.98,WSW,248,17.3,17.3,68,0.00,CLR,,0.01,WeatherDisplay:10.37,2013-01-09 16:55:00,
2013-01-09 12:00:00,43.7,33.8,29.98,SW,225,18.4,18.4,68,0.00,CLR,,0.01,WeatherDisplay:10.37,2013-01-09 17:00:00,
2013-01-09 12:05:00,43.7,33.8,29.99,SW,225,15.0,15.0,68,0.00,CLR,,0.01,WeatherDisplay:10.37,2013-01-09 17:05:00,
2013-01-09 12:10:00,43.9,32.9,29.98,SSW,202,26.5,26.5,65,0.00,CLR,,0.01,WeatherDisplay:10.37,2013-01-09 17:10:00,
2013-01-09 12:15:00,44.1,33.0,29.98,WSW,248,19.6,19.6,65,0.00,CLR,,0.01,WeatherDisplay:10.37,2013-01-09 17:15:00,
2013-01-09 12:20:00,44.1,33.0,29.98,SW,225,17.3,17.3,65,0.00,CLR,,0.01,WeatherDisplay:10.37,2013-01-09 17:20:00,
2013-01-09 12:25:00,44.2,32.8,29.97,WSW,248,19.6,19.6,64,0.00,CLR,,0.01,WeatherDisplay:10.37,2013-01-09 17:25:00,
2013-01-09 12:30:00,44.2,32.4,29.97,SE,135,16.1,16.1,63,0.00,CLR,,0.01,WeatherDisplay:10.37,2013-01-09 17:30:00,
2013-01-09 12:35:00,44.2,32.8,29.97,NW,315,19.6,19.6,64,0.00,CLR,,0.01,WeatherDisplay:10.37,2013-01-09 17:35:00,
2013-01-09 12:40:00,44.4,32.2,29.97,SW,225,24.2,24.2,62,0.00,CLR,,0.01,WeatherDisplay:10.37,2013-01-09 17:40:00,
2013-01-09 12:45:00,44.4,31.8,29.97,SW,225,28.8,28.8,61,0.00,CLR,,0.01,WeatherDisplay:10.37,2013-01-09 17:45:00,
2013-01-09 12:50:00,44.6,31.6,29.97,SW,225,26.5,26.5,60,0.00,CLR,,0.01,WeatherDisplay:10.37,2013-01-09 17:50:00,
2013-01-09 12:55:00,44.6,31.6,29.97,SW,225,23.0,23.0,60,0.00,CLR,,0.01,WeatherDisplay:10.37,2013-01-09 17:55:00,
2013-01-09 13:00:00,44.8,31.3,29.96,North,0,17.3,17.3,59,0.00,CLR,,0.01,WeatherDisplay:10.37,2013-01-09 18:00:00,
2013-01-09 13:05:00,44.8,31.3,29.96,North,0,23.5,23.5,59,0.00,CLR,,0.01,WeatherDisplay:10.37,2013-01-09 18:05:00,
2013-01-09 13:10:00,45.1,31.7,29.97,SW,225,23.0,23.0,59,0.00,CLR,,0.01,WeatherDisplay:10.37,2013-01-09 18:10:00,
2013-01-09 13:15:00,45.1,31.7,29.97,SW,225,24.4,24.4,59,0.00,CLR,,0.01,WeatherDisplay:10.37,2013-01-09 18:15:00,
2013-01-09 13:20:00,45.1,31.2,29.97,SW,225,26.5,26.5,58,0.00,CLR,,0.01,WeatherDisplay:10.37,2013-01-09 18:20:00,
2013-01-09 13:25:00,45.0,31.5,29.96,NNW,338,26.5,26.5,59,0.00,CLR,,0.01,WeatherDisplay:10.37,2013-01-09 18:25:00,
2013-01-09 13:30:00,45.0,31.5,29.97,NW,315,32.2,32.2,59,0.01,RA,,0.02,WeatherDisplay:10.37,2013-01-09 18:30:00,
2013-01-09 13:35:00,45.1,31.7,29.97,SW,225,34.5,34.5,59,0.02,RA,,0.04,WeatherDisplay:10.37,2013-01-09 18:35:00,
2013-01-09 13:40:00,45.1,31.2,29.96,NW,315,32.2,32.2,58,0.02,RA,,0.04,WeatherDisplay:10.37,2013-01-09 18:40:00,
2013-01-09 13:41:00,45.0,31.5,29.96,SW,225,28.8,28.8,59,0.02,RA,,0.04,WeatherDisplay:10.37,2013-01-09 18:41:00,
2013-01-09 13:44:00,45.1,31.7,29.96,NW,315,19.6,19.6,59,0.02,,,0.04,WeatherDisplay:10.37,2013-01-09 18:44:00,
2013-01-09 13:45:00,45.1,31.7,29.97,SW,225,23.0,23.0,59,0.02,,,0.04,WeatherDisplay:10.37,2013-01-09 18:45:00,
2013-01-09 13:48:00,45.3,31.4,29.97,WNW,292,29.9,29.9,58,0.02,CLR,,0.04,WeatherDisplay:10.37,2013-01-09 18:48:00,
2013-01-09 13:53:00,45.3,31.4,29.97,NW,315,25.3,25.3,58,0.02,CLR,,0.04,WeatherDisplay:10.37,2013-01-09 18:53:00,
2013-01-09 13:58:00,45.3,31.4,29.97,SW,225,29.9,29.9,58,0.02,CLR,,0.04,WeatherDisplay:10.37,2013-01-09 18:58:00,
2013-01-09 14:03:00,45.3,31.4,29.98,SW,225,29.9,29.9,58,0.02,CLR,,0.04,WeatherDisplay:10.37,2013-01-09 19:03:00,
2013-01-09 14:08:00,45.5,31.1,29.98,WNW,292,29.9,29.9,57,0.02,CLR,,0.04,WeatherDisplay:10.37,2013-01-09 19:08:00,
2013-01-09 14:13:00,45.7,30.9,29.98,North,0,23.0,23.0,56,0.02,CLR,,0.04,WeatherDisplay:10.37,2013-01-09 19:13:00,
2013-01-09 14:18:00,45.9,30.1,29.99,SW,225,34.5,34.5,54,0.02,CLR,,0.04,WeatherDisplay:10.37,2013-01-09 19:18:00,
2013-01-09 14:23:00,46.0,29.8,29.99,SW,225,32.2,32.2,53,0.05,RA,,0.06,WeatherDisplay:10.37,2013-01-09 19:23:00,
2013-01-09 14:28:00,46.0,29.4,29.99,SW,225,32.2,32.2,52,0.04,RA,,0.06,WeatherDisplay:10.37,2013-01-09 19:28:00,
2013-01-09 14:33:00,46.0,28.9,29.99,South,180,21.9,21.9,51,0.02,CLR,,0.06,WeatherDisplay:10.37,2013-01-09 19:33:00,
2013-01-09 14:38:00,46.2,28.6,30.00,SW,225,44.9,44.9,50,0.04,RA,,0.07,WeatherDisplay:10.37,2013-01-09 19:38:00,
2013-01-09 14:44:00,46.0,27.4,30.00,SW,225,43.7,43.7,48,0.06,RA,,0.19,WeatherDisplay:10.37,2013-01-09 19:44:00,
2013-01-09 14:49:00,46.0,27.4,30.01,North,0,35.7,35.7,48,0.44,RA,,0.47,WeatherDisplay:10.37,2013-01-09 19:49:00,
2013-01-09 14:54:00,45.9,27.3,30.01,SW,225,36.8,36.8,48,0.74,RA,,0.86,WeatherDisplay:10.37,2013-01-09 19:54:00,
2013-01-09 14:59:00,45.9,27.3,30.02,SW,225,36.8,36.8,48,0.83,RA,,0.86,WeatherDisplay:10.37,2013-01-09 19:59:00,
2013-01-09 15:04:00,45.9,27.3,30.02,SW,225,36.8,36.8,48,0.83,RA,,0.86,WeatherDisplay:10.37,2013-01-09 20:04:00,
2013-01-09 15:09:00,45.7,27.6,30.02,NW,315,36.8,36.8,49,0.98,RA,,1.05,WeatherDisplay:10.37,2013-01-09 20:09:00,
2013-01-09 15:14:00,45.7,28.1,30.03,SW,225,34.5,34.5,50,1.02,RA,,1.05,WeatherDisplay:10.37,2013-01-09 20:14:00,
2013-01-09 15:19:00,45.7,27.6,30.03,NE,45,36.8,36.8,49,1.03,RA,,1.06,WeatherDisplay:10.37,2013-01-09 20:19:00,
2013-01-09 15:24:00,45.7,28.1,30.03,WNW,292,29.9,29.9,50,1.04,RA,,1.10,WeatherDisplay:10.37,2013-01-09 20:24:00,
2013-01-09 15:29:00,45.7,27.1,30.04,SW,225,28.8,28.8,48,1.05,RA,,1.11,WeatherDisplay:10.37,2013-01-09 20:29:00,
2013-01-09 15:34:00,45.7,27.6,30.04,SW,225,15.0,15.0,49,1.05,RA,,1.11,WeatherDisplay:10.37,2013-01-09 20:34:00,
2013-01-09 15:39:00,45.7,27.6,30.04,SW,225,28.8,28.8,49,1.04,,,1.11,WeatherDisplay:10.37,2013-01-09 20:39:00,
2013-01-09 15:44:00,45.7,27.1,30.04,East,90,19.6,19.6,48,1.02,CLR,,1.11,WeatherDisplay:10.37,2013-01-09 20:44:00,
2013-01-09 15:49:00,45.7,27.6,30.04,WSW,248,17.3,17.3,49,0.64,CLR,,1.11,WeatherDisplay:10.37,2013-01-09 20:49:00,
2013-01-09 15:54:00,45.3,26.8,30.05,South,180,24.2,24.2,48,0.33,CLR,,1.11,WeatherDisplay:10.37,2013-01-09 20:54:00,
2013-01-09 15:59:00,45.3,27.3,30.05,NW,315,20.7,20.7,49,0.25,CLR,,1.11,WeatherDisplay:10.37,2013-01-09 20:59:00,
2013-01-09 16:04:00,45.3,27.3,30.06,NW,315,15.0,15.0,49,0.25,CLR,,1.11,WeatherDisplay:10.37,2013-01-09 21:04:00,
2013-01-09 16:09:00,44.8,27.7,30.06,NE,45,18.4,18.4,51,0.09,CLR,,1.11,WeatherDisplay:10.37,2013-01-09 21:09:00,
2013-01-09 16:14:00,44.6,28.0,30.06,South,180,16.1,16.1,52,0.06,CLR,,1.11,WeatherDisplay:10.37,2013-01-09 21:14:00,
2013-01-09 16:19:00,44.4,27.9,30.06,SW,225,15.0,15.0,52,0.05,CLR,,1.11,WeatherDisplay:10.37,2013-01-09 21:19:00,
2013-01-09 16:24:00,44.1,27.5,30.07,WNW,292,15.0,15.0,52,0.01,CLR,,1.11,WeatherDisplay:10.37,2013-01-09 21:24:00,
2013-01-09 16:29:00,44.1,27.5,30.08,SW,225,23.0,23.0,52,0.00,CLR,,1.11,WeatherDisplay:10.37,2013-01-09 21:29:00,
2013-01-09 16:34:00,43.9,27.8,30.08,WNW,292,19.6,19.6,53,0.00,CLR,,1.11,WeatherDisplay:10.37,2013-01-09 21:34:00,
2013-01-09 16:39:00,43.7,27.7,30.08,SW,225,23.0,23.0,53,0.00,CLR,,1.11,WeatherDisplay:10.37,2013-01-09 21:39:00,
2013-01-09 16:44:00,43.5,27.0,30.08,West,270,29.9,29.9,52,0.00,CLR,,1.11,WeatherDisplay:10.37,2013-01-09 21:44:00,
2013-01-09 16:49:00,43.3,27.3,30.08,NW,315,17.3,17.3,53,0.00,CLR,,1.11,WeatherDisplay:10.37,2013-01-09 21:49:00,
2013-01-09 16:54:00,43.2,27.2,30.08,SE,135,10.4,10.4,53,0.00,CLR,,1.11,WeatherDisplay:10.37,2013-01-09 21:54:00,
2013-01-09 16:59:00,43.0,26.5,30.09,NW,315,18.4,18.4,52,0.00,CLR,,1.11,WeatherDisplay:10.37,2013-01-09 21:59:00,
2013-01-09 17:04:00,43.0,26.5,30.09,NW,315,18.4,18.4,52,0.00,CLR,,1.11,WeatherDisplay:10.37,2013-01-09 22:04:00,
2013-01-09 17:09:00,42.6,25.7,30.09,SW,225,19.6,19.6,51,0.00,CLR,,1.11,WeatherDisplay:10.37,2013-01-09 22:09:00,
2013-01-09 17:14:00,42.6,25.7,30.10,SW,225,15.0,15.0,51,0.00,CLR,,1.11,WeatherDisplay:10.37,2013-01-09 22:14:00,
2013-01-09 17:19:00,42.3,26.3,30.10,WSW,248,24.2,24.2,53,0.01,RA,,1.12,WeatherDisplay:10.37,2013-01-09 22:19:00,
2013-01-09 17:24:00,41.7,26.3,30.11,SW,225,19.6,19.6,54,0.01,RA,,1.12,WeatherDisplay:10.37,2013-01-09 22:24:00,
2013-01-09 17:29:00,41.7,26.3,30.11,South,180,23.0,23.0,54,0.01,CLR,,1.12,WeatherDisplay:10.37,2013-01-09 22:29:00,
2013-01-09 17:34:00,41.5,26.6,30.12,SW,225,20.7,20.7,55,0.01,CLR,,1.12,WeatherDisplay:10.37,2013-01-09 22:34:00,
2013-01-09 17:39:00,41.4,26.8,30.12,SW,225,15.0,15.0,56,0.01,CLR,,1.12,WeatherDisplay:10.37,2013-01-09 22:39:00,
2013-01-09 17:44:00,41.2,26.7,30.12,SW,225,13.8,13.8,56,0.01,CLR,,1.12,WeatherDisplay:10.37,2013-01-09 22:44:00,
2013-01-09 17:49:00,41.0,26.9,30.13,SW,225,17.3,17.3,57,0.01,CLR,,1.12,WeatherDisplay:10.37,2013-01-09 22:49:00,
2013-01-09 17:54:00,41.0,26.9,30.13,NW,315,19.6,19.6,57,0.01,CLR,,1.12,WeatherDisplay:10.37,2013-01-09 22:54:00,
2013-01-09 17:59:00,40.5,26.8,30.14,SE,135,23.0,23.0,58,0.01,CLR,,1.12,WeatherDisplay:10.37,2013-01-09 22:59:00,
2013-01-09 18:04:00,40.5,26.8,30.14,SW,225,19.6,19.6,58,0.01,CLR,,1.12,WeatherDisplay:10.37,2013-01-09 23:04:00,
2013-01-09 18:09:00,40.3,27.1,30.14,SSW,202,19.6,19.6,59,0.01,CLR,,1.12,WeatherDisplay:10.37,2013-01-09 23:09:00,
2013-01-09 18:14:00,40.1,26.5,30.15,SW,225,23.5,23.5,58,0.01,CLR,,1.12,WeatherDisplay:10.37,2013-01-09 23:14:00,
2013-01-09 18:19:00,40.1,26.5,30.15,SW,225,16.1,16.1,58,0.00,CLR,,1.12,WeatherDisplay:10.37,2013-01-09 23:19:00,
2013-01-09 18:24:00,39.9,26.7,30.16,WNW,292,12.7,12.7,59,0.00,CLR,,1.12,WeatherDisplay:10.37,2013-01-09 23:24:00,
2013-01-09 18:29:00,39.9,26.7,30.16,South,180,19.6,19.6,59,0.00,CLR,,1.12,WeatherDisplay:10.37,2013-01-09 23:29:00,
2013-01-09 18:34:00,39.7,26.6,30.16,South,180,11.5,11.5,59,0.00,CLR,,1.12,WeatherDisplay:10.37,2013-01-09 23:34:00,
2013-01-09 18:39:00,39.6,26.4,30.17,North,0,17.3,17.3,59,0.00,CLR,,1.12,WeatherDisplay:10.37,2013-01-09 23:39:00,
2013-01-09 18:44:00,39.4,26.2,30.17,South,180,15.0,15.0,59,0.00,CLR,,1.12,WeatherDisplay:10.37,2013-01-09 23:44:00,
2013-01-09 18:49:00,39.2,26.1,30.19,SE,135,17.3,17.3,59,0.00,CLR,,1.12,WeatherDisplay:10.37,2013-01-09 23:49:00,
2013-01-09 18:54:00,39.2,26.5,30.19,NW,315,13.8,13.8,60,0.00,CLR,,1.12,WeatherDisplay:10.37,2013-01-09 23:54:00,
2013-01-09 18:59:00,38.8,26.1,30.19,SSW,202,15.0,15.0,60,0.00,CLR,,1.12,WeatherDisplay:10.37,2013-01-09 23:59:00,
2013-01-09 19:04:00,38.8,26.5,30.20,SSE,158,11.5,11.5,61,0.00,CLR,,1.12,WeatherDisplay:10.37,2013-01-10 00:04:00,
2013-01-09 19:09:00,38.5,26.2,30.20,South,180,12.7,12.7,61,0.00,CLR,,1.12,WeatherDisplay:10.37,2013-01-10 00:09:00,
2013-01-09 19:14:00,38.5,26.2,30.21,SW,225,9.2,9.2,61,0.00,CLR,,1.12,WeatherDisplay:10.37,2013-01-10 00:14:00,
2013-01-09 19:19:00,38.5,26.6,30.21,SW,225,17.3,17.3,62,0.00,CLR,,1.12,WeatherDisplay:10.37,2013-01-10 00:19:00,
2013-01-09 19:24:00,38.3,26.0,30.22,SW,225,8.1,8.1,61,0.00,CLR,,1.12,WeatherDisplay:10.37,2013-01-10 00:24:00,
2013-01-09 19:29:00,38.3,26.4,30.23,ENE,68,8.1,8.1,62,0.00,CLR,,1.12,WeatherDisplay:10.37,2013-01-10 00:29:00,
2013-01-09 19:34:00,38.1,26.2,30.23,NW,315,10.4,10.4,62,0.00,CLR,,1.12,WeatherDisplay:10.37,2013-01-10 00:34:00,
2013-01-09 19:39:00,38.1,26.6,30.24,SW,225,10.4,10.4,63,0.00,CLR,,1.12,WeatherDisplay:10.37,2013-01-10 00:39:00,
2013-01-09 19:44:00,38.1,26.6,30.24,SW,225,12.7,12.7,63,0.00,CLR,,1.12,WeatherDisplay:10.37,2013-01-10 00:44:00,
2013-01-09 19:49:00,37.8,26.3,30.24,South,180,10.4,10.4,63,0.00,CLR,,1.12,WeatherDisplay:10.37,2013-01-10 00:49:00,
2013-01-09 19:54:00,37.8,26.3,30.24,West,270,10.4,10.4,63,0.00,CLR,,1.12,WeatherDisplay:10.37,2013-01-10 00:54:00,
2013-01-09 19:59:00,37.9,26.5,30.24,SW,225,12.7,12.7,63,0.00,CLR,,1.12,WeatherDisplay:10.37,2013-01-10 00:59:00,
2013-01-09 20:04:00,37.9,26.5,30.24,WSW,248,9.2,9.2,63,0.00,CLR,,1.12,WeatherDisplay:10.37,2013-01-10 01:04:00,
2013-01-09 20:09:00,37.6,26.1,30.25,NW,315,10.4,10.4,63,0.00,CLR,,1.12,WeatherDisplay:10.37,2013-01-10 01:09:00,
2013-01-09 20:14:00,37.4,25.9,30.23,NW,315,13.8,13.8,63,0.00,CLR,,1.12,WeatherDisplay:10.37,2013-01-10 01:14:00,
2013-01-09 20:19:00,37.4,25.9,30.24,SW,225,10.4,10.4,63,0.00,CLR,,1.12,WeatherDisplay:10.37,2013-01-10 01:19:00,
2013-01-09 20:24:00,37.6,26.1,30.24,SSW,202,10.4,10.4,63,0.00,CLR,,1.12,WeatherDisplay:10.37,2013-01-10 01:24:00,
2013-01-09 20:29:00,37.6,26.1,30.25,SW,225,10.4,10.4,63,0.00,CLR,,1.12,WeatherDisplay:10.37,2013-01-10 01:29:00,
2013-01-09 20:34:00,37.4,25.9,30.25,NW,315,8.1,8.1,63,0.00,CLR,,1.12,WeatherDisplay:10.37,2013-01-10 01:34:00,
2013-01-09 20:39:00,37.2,25.8,30.25,WSW,248,6.9,6.9,63,0.00,CLR,,1.12,WeatherDisplay:10.37,2013-01-10 01:39:00,
2013-01-09 20:44:00,37.2,26.2,30.25,SW,225,8.1,8.1,64,0.00,CLR,,1.12,WeatherDisplay:10.37,2013-01-10 01:44:00,
2013-01-09 20:49:00,37.0,26.0,30.25,SW,225,8.1,8.1,64,0.00,CLR,,1.12,WeatherDisplay:10.37,2013-01-10 01:49:00,
2013-01-09 20:54:00,37.0,26.0,30.25,SE,135,5.8,5.8,64,0.00,CLR,,1.12,WeatherDisplay:10.37,2013-01-10 01:54:00,
2013-01-09 20:59:00,37.0,26.0,30.25,SW,225,5.8,5.8,64,0.00,CLR,,1.12,WeatherDisplay:10.37,2013-01-10 01:59:00,
2013-01-09 21:04:00,36.9,25.8,30.26,North,0,3.5,3.5,64,0.00,CLR,,1.12,WeatherDisplay:10.37,2013-01-10 02:04:00,
2013-01-09 21:09:00,36.7,26.0,30.26,SW,225,8.1,8.1,65,0.00,CLR,,1.12,WeatherDisplay:10.37,2013-01-10 02:09:00,
2013-01-09 21:14:00,36.3,26.0,30.26,NE,45,8.1,8.1,66,0.00,CLR,,1.12,WeatherDisplay:10.37,2013-01-10 02:14:00,
2013-01-09 21:19:00,36.1,25.9,30.26,NW,315,10.4,10.4,66,0.00,CLR,,1.12,WeatherDisplay:10.37,2013-01-10 02:19:00,
2013-01-09 21:24:00,36.0,26.1,30.26,SW,225,6.9,6.9,67,0.00,CLR,,1.12,WeatherDisplay:10.37,2013-01-10 02:24:00,
2013-01-09 21:29:00,36.0,26.1,30.26,West,270,8.1,8.1,67,0.00,CLR,,1.12,WeatherDisplay:10.37,2013-01-10 02:29:00,
2013-01-09 21:34:00,36.0,26.1,30.26,NW,315,8.1,8.1,67,0.00,CLR,,1.12,WeatherDisplay:10.37,2013-01-10 02:34:00,
2013-01-09 21:39:00,35.8,25.9,30.26,West,270,5.8,5.8,67,0.00,CLR,,1.12,WeatherDisplay:10.37,2013-01-10 02:39:00,
2013-01-09 21:44:00,35.8,25.9,30.27,North,0,3.5,3.5,67,0.00,CLR,,1.12,WeatherDisplay:10.37,2013-01-10 02:44:00,
2013-01-09 21:49:00,35.6,25.7,30.27,South,180,5.8,5.8,67,0.00,CLR,,1.12,WeatherDisplay:10.37,2013-01-10 02:49:00,
2013-01-09 21:54:00,35.6,26.1,30.27,South,180,6.9,6.9,68,0.00,CLR,,1.12,WeatherDisplay:10.37,2013-01-10 02:54:00,
2013-01-09 21:59:00,35.6,26.1,30.27,NW,315,4.6,4.6,68,0.00,CLR,,1.12,WeatherDisplay:10.37,2013-01-10 02:59:00,
2013-01-09 22:04:00,35.6,26.1,30.27,NW,315,3.5,3.5,68,0.00,CLR,,1.12,WeatherDisplay:10.37,2013-01-10 03:04:00,
2013-01-09 22:09:00,35.2,25.7,30.27,SW,225,6.9,6.9,68,0.00,CLR,,1.12,WeatherDisplay:10.37,2013-01-10 03:09:00,
2013-01-09 22:14:00,35.1,25.6,30.27,West,270,6.9,6.9,68,0.00,CLR,,1.12,WeatherDisplay:10.37,2013-01-10 03:14:00,
2013-01-09 22:19:00,35.1,25.9,30.27,South,180,3.5,3.5,69,0.00,CLR,,1.12,WeatherDisplay:10.37,2013-01-10 03:19:00,
2013-01-09 22:24:00,35.1,25.9,30.27,West,270,5.8,5.8,69,0.00,CLR,,1.12,WeatherDisplay:10.37,2013-01-10 03:24:00,
2013-01-09 22:29:00,34.9,25.7,30.28,North,0,4.6,4.6,69,0.00,CLR,,1.12,WeatherDisplay:10.37,2013-01-10 03:29:00,
2013-01-09 22:34:00,34.9,25.7,30.28,SW,225,4.6,4.6,69,0.00,CLR,,1.12,WeatherDisplay:10.37,2013-01-10 03:34:00,
2013-01-09 22:39:00,34.5,25.4,30.28,South,180,3.5,3.5,69,0.00,CLR,,1.12,WeatherDisplay:10.37,2013-01-10 03:39:00,
2013-01-09 22:44:00,34.3,25.2,30.28,SW,225,3.5,3.5,69,0.00,CLR,,1.12,WeatherDisplay:10.37,2013-01-10 03:44:00,
2013-01-09 22:49:00,34.2,25.4,30.28,SE,135,3.5,3.5,70,0.00,CLR,,1.12,WeatherDisplay:10.37,2013-01-10 03:49:00,
2013-01-09 22:54:00,34.0,25.2,30.29,West,270,4.6,4.6,70,0.00,CLR,,1.12,WeatherDisplay:10.37,2013-01-10 03:54:00,
2013-01-09 22:59:00,34.0,25.2,30.29,SW,225,3.5,3.5,70,0.00,CLR,,1.12,WeatherDisplay:10.37,2013-01-10 03:59:00,
2013-01-09 23:04:00,34.0,25.2,30.29,SW,225,2.3,2.3,70,0.00,CLR,,1.12,WeatherDisplay:10.37,2013-01-10 04:04:00,
2013-01-09 23:09:00,33.6,25.2,30.28,South,180,3.5,0.0,71,0.00,CLR,,1.12,WeatherDisplay:10.37,2013-01-10 04:09:00,
2013-01-09 23:14:00,33.4,25.0,30.29,WNW,292,3.5,0.0,71,0.00,CLR,,1.12,WeatherDisplay:10.37,2013-01-10 04:14:00,
2013-01-09 23:19:00,33.1,24.7,30.28,North,0,3.5,3.5,71,0.00,CLR,,1.12,WeatherDisplay:10.37,2013-01-10 04:19:00,
2013-01-09 23:24:00,32.9,24.5,30.29,West,270,4.5,4.5,71,0.00,CLR,,1.12,WeatherDisplay:10.37,2013-01-10 04:24:00,
2013-01-09 23:29:00,32.7,24.7,30.29,West,270,3.5,3.5,72,0.00,CLR,,1.12,WeatherDisplay:10.37,2013-01-10 04:29:00,
2013-01-09 23:34:00,32.4,24.3,30.29,SSW,202,2.3,0.0,72,0.00,CLR,,1.12,WeatherDisplay:10.37,2013-01-10 04:34:00,
2013-01-09 23:39:00,32.4,24.7,30.29,NE,45,1.2,0.0,73,0.00,CLR,,1.12,WeatherDisplay:10.37,2013-01-10 04:39:00,
2013-01-09 23:44:00,32.7,25.0,30.29,NW,315,2.3,2.3,73,0.00,CLR,,1.12,WeatherDisplay:10.37,2013-01-10 04:44:00,
2013-01-09 23:49:00,33.1,25.4,30.28,SW,225,1.2,0.0,73,0.00,CLR,,1.12,WeatherDisplay:10.37,2013-01-10 04:49:00,
2013-01-09 23:54:00,32.9,25.2,30.28,NW,315,1.6,0.0,73,0.00,CLR,,1.12,WeatherDisplay:10.37,2013-01-10 04:54:00,
2013-01-09 23:59:00,32.7,25.0,30.28,NW,315,1.2,0.0,73,0.00,CLR,,1.12,WeatherDisplay:10.37,2013-01-10 04:59:00,